Time;durP1;ratioP1;P1;durP2;ratioP2;P2;SDS_P1;SDS_P2;PMS_P1;PMS_P2;Temp;Humidity;BMP_temperature;BMP_pressure;BME280_temperature;BME280_humidity;BME280_pressure;Samples;Min_cycle;Max_cycle;Signal;HPM_P1;HPM_P2
2022/11/10 00:01:06;;;;;;;0.35;0.20;;;7.20;99.90;;;;;;5067914;28;20518;-71
2022/11/10 00:03:39;;;;;;;0.40;0.40;;;7.10;99.90;;;;;;5068322;28;22548;-70
2022/11/10 00:06:07;;;;;;;0.30;0.30;;;6.90;99.90;;;;;;5067656;28;20431;-70
2022/11/10 00:08:35;;;;;;;0.30;0.30;;;6.80;99.90;;;;;;5052608;28;20440;-70
2022/11/10 00:11:06;;;;;;;0.35;0.35;;;6.70;99.90;;;;;;5066933;28;20890;-70
2022/11/10 00:16:59;;;;;;;0.50;0.50;;;6.60;99.90;;;;;;5063137;28;20429;-70
2022/11/10 00:19:08;;;;;;;0.40;0.40;;;6.50;99.90;;;;;;5056307;28;20432;-70
2022/11/10 00:21:37;;;;;;;0.57;0.57;;;6.60;99.90;;;;;;5070002;28;20455;-70
2022/11/10 00:24:04;;;;;;;0.17;0.17;;;6.70;99.90;;;;;;5069366;28;20427;-70
2022/11/10 00:26:31;;;;;;;0.50;0.35;;;6.70;99.90;;;;;;5064427;28;20431;-70
2022/11/10 00:28:57;;;;;;;0.28;0.28;;;6.80;99.90;;;;;;5069120;28;20442;-70
2022/11/10 00:31:27;;;;;;;0.30;0.30;;;6.80;99.90;;;;;;5067891;28;20424;-70
2022/11/10 00:33:54;;;;;;;0.10;0.10;;;6.70;99.90;;;;;;5067447;28;20446;-70
2022/11/10 00:36:24;;;;;;;0.30;0.30;;;6.70;99.90;;;;;;5064132;28;20938;-70
2022/11/10 00:38:51;;;;;;;1.50;0.45;;;6.70;99.90;;;;;;5067371;28;20436;-70
2022/11/10 00:41:21;;;;;;;0.13;0.13;;;6.60;99.90;;;;;;5061473;28;20429;-70
2022/11/10 00:43:47;;;;;;;0.40;0.40;;;6.50;99.90;;;;;;5058529;28;20428;-70
2022/11/10 00:46:14;;;;;;;1.10;0.30;;;6.40;99.90;;;;;;5068504;28;20460;-70
2022/11/10 00:48:41;;;;;;;1.80;0.40;;;6.50;99.90;;;;;;5058143;28;20435;-70
2022/11/10 00:51:16;;;;;;;0.33;0.33;;;6.50;99.90;;;;;;5060703;28;20427;-70
2022/11/10 00:53:43;;;;;;;0.28;0.28;;;6.40;99.90;;;;;;5060726;28;20953;-70
2022/11/10 00:56:09;;;;;;;0.30;0.30;;;6.30;99.90;;;;;;5058507;28;20432;-70
2022/11/10 00:58:36;;;;;;;1.20;0.30;;;6.30;99.90;;;;;;5063566;28;20440;-70
2022/11/10 01:01:04;;;;;;;0.30;0.30;;;6.20;99.90;;;;;;5060307;28;20456;-70
2022/11/10 01:03:32;;;;;;;0.30;0.30;;;6.10;99.90;;;;;;5058617;28;20432;-69
2022/11/10 01:06:03;;;;;;;0.35;0.35;;;6.10;99.90;;;;;;5053661;28;20511;-69
2022/11/10 01:08:34;;;;;;;0.40;0.30;;;6.00;99.90;;;;;;5055956;28;20810;-69
2022/11/10 01:11:16;;;;;;;1.90;0.30;;;6.00;99.90;;;;;;5054759;28;20431;-69
2022/11/10 01:13:48;;;;;;;0.20;0.20;;;5.90;99.90;;;;;;5080880;28;20431;-69
2022/11/10 01:16:18;;;;;;;0.27;0.27;;;5.90;99.90;;;;;;5052322;28;20432;-69
2022/11/10 01:18:56;;;;;;;0.38;0.38;;;5.80;99.90;;;;;;5058957;28;20433;-70
2022/11/10 01:21:24;;;;;;;0.20;0.20;;;5.90;99.90;;;;;;5069074;28;20431;-69
2022/11/10 01:23:51;;;;;;;0.25;0.25;;;6.00;99.90;;;;;;5068253;28;20844;-69
2022/11/10 01:26:26;;;;;;;1.07;0.27;;;5.90;99.90;;;;;;5067637;28;20435;-69
2022/11/10 01:28:53;;;;;;;0.20;0.20;;;5.90;99.90;;;;;;5067234;28;20439;-69
2022/11/10 01:31:21;;;;;;;0.30;0.30;;;6.00;99.90;;;;;;5058033;28;20421;-69
2022/11/10 01:33:48;;;;;;;0.32;0.32;;;6.00;99.90;;;;;;5053784;28;21139;-69
2022/11/10 01:36:15;;;;;;;0.85;0.22;;;6.00;99.90;;;;;;5068110;28;20428;-69
2022/11/10 01:38:44;;;;;;;0.30;0.30;;;6.00;99.90;;;;;;5078316;28;20430;-70
2022/11/10 01:41:14;;;;;;;0.40;0.40;;;6.10;99.90;;;;;;5066830;28;20434;-69
2022/11/10 01:43:41;;;;;;;0.38;0.30;;;6.00;99.90;;;;;;5066916;28;20442;-69
2022/11/10 01:46:12;;;;;;;0.30;0.23;;;6.00;99.90;;;;;;5064519;28;20437;-69
2022/11/10 01:49:01;;;;;;;4.30;0.30;;;6.10;99.90;;;;;;5048591;28;20476;-69
2022/11/10 01:51:49;;;;;;;3.20;0.50;;;6.00;99.90;;;;;;5061358;28;20458;-70
2022/11/10 01:54:26;;;;;;;0.15;0.15;;;6.10;99.90;;;;;;5061954;28;20946;-69
2022/11/10 01:57:05;;;;;;;0.13;0.13;;;6.10;99.90;;;;;;5060407;28;20425;-70
2022/11/10 01:59:38;;;;;;;0.20;0.20;;;6.00;99.90;;;;;;5052609;28;20424;-70
2022/11/10 02:02:28;;;;;;;0.20;0.20;;;5.90;99.90;;;;;;5066116;28;20430;-69
2022/11/10 02:04:55;;;;;;;0.30;0.30;;;5.80;99.90;;;;;;5012729;28;20450;-69
2022/11/10 02:07:25;;;;;;;0.20;0.20;;;5.90;99.90;;;;;;5007075;28;20440;-69
2022/11/10 02:09:52;;;;;;;0.30;0.30;;;5.90;99.90;;;;;;5003662;28;20431;-69
2022/11/10 02:12:35;;;;;;;0.30;0.30;;;6.00;99.90;;;;;;5020031;28;20954;-69
2022/11/10 02:15:07;;;;;;;0.20;0.20;;;6.00;99.90;;;;;;5014979;28;20433;-69
2022/11/10 02:17:34;;;;;;;0.30;0.20;;;6.00;99.90;;;;;;5004706;28;20495;-69
2022/11/10 02:20:04;;;;;;;2.88;0.50;;;5.90;99.90;;;;;;5013893;28;20440;-69
2022/11/10 02:22:32;;;;;;;0.80;0.30;;;5.90;99.90;;;;;;5013259;28;20445;-69
2022/11/10 02:24:59;;;;;;;0.28;0.28;;;5.80;99.90;;;;;;5011223;28;20430;-69
2022/11/10 02:27:25;;;;;;;0.40;0.30;;;5.70;99.90;;;;;;5018183;28;20427;-69
2022/11/10 02:29:52;;;;;;;0.20;0.20;;;5.60;99.90;;;;;;5012145;28;20434;-69
2022/11/10 02:32:21;;;;;;;0.30;0.30;;;5.60;99.90;;;;;;5019451;28;20929;-69
2022/11/10 02:34:48;;;;;;;0.30;0.30;;;5.60;99.90;;;;;;5015101;28;20973;-69
2022/11/10 02:37:15;;;;;;;0.25;0.25;;;5.60;99.90;;;;;;5017338;28;20437;-69
2022/11/10 02:39:42;;;;;;;0.38;0.38;;;5.60;99.90;;;;;;5012219;28;20974;-69
2022/11/10 02:42:11;;;;;;;0.22;0.22;;;5.60;99.90;;;;;;5042718;28;21169;-69
2022/11/10 02:44:39;;;;;;;0.70;0.30;;;5.60;99.90;;;;;;5067318;28;20914;-69
2022/11/10 02:47:06;;;;;;;0.50;0.47;;;5.70;99.90;;;;;;5056929;28;20427;-70
2022/11/10 02:49:33;;;;;;;0.30;0.30;;;5.60;99.90;;;;;;5066272;28;20437;-70
2022/11/10 02:52:00;;;;;;;0.28;0.28;;;5.60;99.90;;;;;;5062868;28;20511;-70
2022/11/10 02:54:26;;;;;;;0.30;0.30;;;5.50;99.90;;;;;;5066540;28;20424;-70
2022/11/10 02:56:53;;;;;;;0.75;0.40;;;5.50;99.90;;;;;;5068004;28;20454;-70
2022/11/10 02:59:22;;;;;;;0.40;0.40;;;5.50;99.90;;;;;;5072163;28;20902;-70
2022/11/10 03:01:49;;;;;;;0.32;0.32;;;5.60;99.90;;;;;;5065800;28;20427;-70
2022/11/10 03:04:15;;;;;;;0.30;0.30;;;5.70;99.90;;;;;;5063437;28;21117;-70
2022/11/10 03:06:42;;;;;;;0.20;0.20;;;5.70;99.90;;;;;;5063175;28;20914;-70
2022/11/10 03:09:09;;;;;;;1.13;0.50;;;5.80;99.90;;;;;;5064006;28;20424;-70
2022/11/10 03:11:37;;;;;;;0.40;0.40;;;5.80;99.90;;;;;;5065758;28;20427;-70
2022/11/10 03:14:04;;;;;;;0.22;0.22;;;5.70;99.90;;;;;;5069730;28;20431;-70
2022/11/10 03:16:31;;;;;;;0.40;0.40;;;5.60;99.90;;;;;;5059250;28;20430;-70
2022/11/10 03:18:58;;;;;;;0.40;0.40;;;5.50;99.90;;;;;;5065664;28;20481;-70
2022/11/10 03:21:24;;;;;;;0.38;0.38;;;5.50;99.90;;;;;;5069705;28;20476;-70
2022/11/10 03:23:51;;;;;;;0.10;0.10;;;5.50;99.90;;;;;;5066711;28;20436;-70
2022/11/10 03:26:18;;;;;;;1.20;0.40;;;5.60;99.90;;;;;;5052527;28;20429;-70
2022/11/10 03:28:44;;;;;;;0.40;0.30;;;5.70;99.90;;;;;;5064239;28;20515;-70
2022/11/10 03:31:14;;;;;;;0.38;0.38;;;5.60;99.90;;;;;;5062976;28;20433;-70
2022/11/10 03:33:41;;;;;;;0.38;0.38;;;5.60;99.90;;;;;;5065690;28;20423;-70
2022/11/10 03:36:07;;;;;;;0.27;0.27;;;5.50;99.90;;;;;;5063149;28;20427;-70
2022/11/10 03:38:34;;;;;;;0.40;0.40;;;5.60;99.90;;;;;;5069039;28;20958;-70
2022/11/10 03:41:01;;;;;;;0.80;0.60;;;5.40;99.90;;;;;;5068428;28;20489;-70
2022/11/10 03:43:47;;;;;;;0.50;0.50;;;5.40;99.90;;;;;;5061883;28;20427;-70
2022/11/10 03:46:16;;;;;;;0.40;0.40;;;5.40;99.90;;;;;;5056861;28;20464;-70
2022/11/10 03:48:46;;;;;;;0.40;0.40;;;5.40;99.90;;;;;;5060783;28;20429;-70
2022/11/10 03:51:19;;;;;;;0.30;0.30;;;5.30;99.90;;;;;;5062915;28;20506;-70
2022/11/10 03:53:45;;;;;;;0.55;0.55;;;5.20;99.90;;;;;;5068683;28;20423;-70
2022/11/10 03:56:12;;;;;;;0.70;0.40;;;5.20;99.90;;;;;;5065873;28;20432;-70
2022/11/10 03:58:39;;;;;;;1.00;0.40;;;5.20;99.90;;;;;;5059887;28;20429;-70
2022/11/10 04:01:06;;;;;;;0.35;0.35;;;5.20;99.90;;;;;;5064139;28;20500;-70
2022/11/10 04:03:33;;;;;;;0.32;0.32;;;5.20;99.90;;;;;;5065480;28;20446;-70
2022/11/10 04:08:59;;;;;;;0.30;0.30;;;5.10;99.90;;;;;;5068265;28;20428;-70
2022/11/10 04:16:59;;;;;;;0.30;0.30;;;4.90;99.90;;;;;;5063586;28;20444;-70
2022/11/10 04:19:26;;;;;;;0.55;0.55;;;4.80;99.90;;;;;;5068545;28;20435;-70
2022/11/10 04:21:54;;;;;;;0.40;0.40;;;4.70;99.90;;;;;;5070806;28;20431;-70
2022/11/10 04:24:20;;;;;;;0.50;0.50;;;4.70;99.90;;;;;;5067909;28;20439;-70
2022/11/10 04:26:48;;;;;;;1.90;0.47;;;4.70;99.90;;;;;;5059878;28;20430;-70
2022/11/10 04:29:17;;;;;;;0.40;0.40;;;4.80;99.90;;;;;;5050524;28;20433;-70
2022/11/10 04:31:43;;;;;;;0.50;0.50;;;4.80;99.90;;;;;;5058909;28;20430;-70
2022/11/10 04:34:12;;;;;;;0.45;0.45;;;4.80;99.90;;;;;;5061923;28;20433;-70
2022/11/10 04:36:41;;;;;;;0.52;0.52;;;4.70;99.90;;;;;;5061622;28;20434;-70
2022/11/10 04:39:09;;;;;;;1.02;1.02;;;4.80;99.90;;;;;;5059740;28;20473;-70
2022/11/10 04:41:36;;;;;;;0.30;0.30;;;4.90;99.90;;;;;;5063351;28;20818;-70
2022/11/10 04:44:03;;;;;;;0.50;0.50;;;5.00;99.90;;;;;;5066217;28;20443;-70
2022/11/10 04:46:33;;;;;;;0.30;0.30;;;5.20;99.90;;;;;;5059829;28;20425;-70
2022/11/10 04:49:00;;;;;;;0.88;0.52;;;5.30;99.90;;;;;;5063071;28;20431;-70
2022/11/10 04:51:30;;;;;;;0.50;0.50;;;5.40;99.90;;;;;;5077374;28;20444;-70
2022/11/10 04:53:57;;;;;;;0.43;0.30;;;5.50;99.90;;;;;;5065248;28;20423;-70
2022/11/10 04:56:25;;;;;;;1.80;0.32;;;5.40;99.90;;;;;;5069347;28;20435;-70
2022/11/10 04:58:52;;;;;;;0.40;0.40;;;5.20;99.90;;;;;;5064242;28;20420;-70
2022/11/10 05:01:22;;;;;;;0.40;0.30;;;5.10;99.90;;;;;;5059534;28;20463;-70
2022/11/10 05:03:50;;;;;;;0.60;0.30;;;5.20;99.90;;;;;;5062955;28;20462;-70
2022/11/10 05:06:17;;;;;;;0.43;0.43;;;5.20;99.90;;;;;;5064270;28;20443;-71
2022/11/10 05:08:46;;;;;;;1.90;0.40;;;5.30;99.90;;;;;;5068681;28;20423;-70
2022/11/10 05:11:13;;;;;;;0.30;0.30;;;5.30;99.90;;;;;;5059659;28;20923;-70
2022/11/10 05:13:48;;;;;;;0.30;0.30;;;5.20;99.90;;;;;;5061174;28;20429;-69
2022/11/10 05:16:15;;;;;;;1.85;0.63;;;5.00;99.90;;;;;;5061601;28;20963;-70
2022/11/10 05:18:41;;;;;;;0.50;0.50;;;5.00;99.90;;;;;;5075965;28;20448;-70
2022/11/10 05:21:08;;;;;;;0.47;0.30;;;5.00;99.90;;;;;;5065026;28;20461;-70
2022/11/10 05:23:37;;;;;;;0.55;0.55;;;5.00;99.90;;;;;;5069147;28;20463;-70
2022/11/10 05:26:16;;;;;;;0.30;0.30;;;4.90;99.90;;;;;;5063503;28;20779;-71
2022/11/10 05:28:44;;;;;;;0.77;0.77;;;4.80;99.90;;;;;;5056633;28;20912;-70
2022/11/10 05:31:12;;;;;;;0.70;0.70;;;4.70;99.90;;;;;;5064339;28;20427;-71
2022/11/10 05:33:39;;;;;;;0.70;0.43;;;4.60;99.90;;;;;;5068655;28;20422;-70
2022/11/10 05:36:07;;;;;;;0.68;0.68;;;4.50;99.90;;;;;;5068208;28;20438;-70
2022/11/10 05:38:34;;;;;;;0.55;0.52;;;4.50;99.90;;;;;;5072864;28;20866;-71
2022/11/10 05:41:09;;;;;;;0.38;0.38;;;4.50;99.90;;;;;;5070187;28;20435;-70
2022/11/10 05:43:37;;;;;;;0.30;0.30;;;4.50;99.90;;;;;;5070238;28;20435;-70
2022/11/10 05:46:03;;;;;;;0.45;0.45;;;4.50;99.90;;;;;;5072192;28;20427;-71
2022/11/10 05:48:30;;;;;;;1.38;0.63;;;4.40;99.90;;;;;;5073147;28;20431;-71
2022/11/10 05:50:57;;;;;;;0.60;0.60;;;4.40;99.90;;;;;;5072930;28;20926;-70
2022/11/10 05:53:23;;;;;;;0.50;0.50;;;4.50;99.90;;;;;;5072506;28;20432;-70
2022/11/10 05:55:51;;;;;;;0.65;0.63;;;4.60;99.90;;;;;;5073274;28;20503;-70
2022/11/10 05:58:17;;;;;;;1.02;0.77;;;4.70;99.90;;;;;;5067544;28;20434;-70
2022/11/10 06:00:44;;;;;;;0.50;0.50;;;4.80;99.90;;;;;;5069894;28;20479;-70
2022/11/10 06:03:18;;;;;;;1.23;0.73;;;4.80;99.90;;;;;;5068190;28;20952;-70
2022/11/10 06:05:46;;;;;;;0.30;0.30;;;4.80;99.90;;;;;;5070167;28;20431;-70
2022/11/10 06:08:12;;;;;;;0.27;0.27;;;4.80;99.90;;;;;;5063014;28;20442;-68
2022/11/10 06:10:40;;;;;;;0.30;0.30;;;4.70;99.90;;;;;;5070990;28;20549;-70
2022/11/10 06:13:07;;;;;;;1.10;0.80;;;4.70;99.90;;;;;;5063548;28;21426;-72
2022/11/10 06:15:34;;;;;;;1.45;0.55;;;4.60;99.90;;;;;;5061834;28;20455;-71
2022/11/10 06:18:03;;;;;;;0.50;0.50;;;4.60;99.90;;;;;;5059690;28;20421;-71
2022/11/10 06:20:33;;;;;;;0.70;0.70;;;4.60;99.90;;;;;;5059251;28;20429;-71
2022/11/10 06:23:03;;;;;;;0.50;0.50;;;4.60;99.90;;;;;;5058803;28;20522;-72
2022/11/10 06:25:32;;;;;;;0.50;0.30;;;4.50;99.90;;;;;;5059534;28;20531;-71
2022/11/10 06:28:00;;;;;;;0.40;0.40;;;4.40;99.90;;;;;;5057512;28;20425;-72
2022/11/10 06:30:32;;;;;;;0.57;0.50;;;4.30;99.90;;;;;;5063998;28;20485;-71
2022/11/10 06:33:00;;;;;;;0.43;0.43;;;4.20;99.90;;;;;;5050113;28;20495;-71
2022/11/10 06:35:28;;;;;;;0.70;0.57;;;4.20;99.90;;;;;;5056417;28;20424;-71
2022/11/10 06:37:57;;;;;;;3.20;0.87;;;4.10;99.90;;;;;;5064003;28;20451;-71
2022/11/10 06:40:24;;;;;;;0.40;0.40;;;4.10;99.90;;;;;;5064392;28;20431;-72
2022/11/10 06:42:54;;;;;;;0.77;0.77;;;4.10;99.90;;;;;;5063036;28;20451;-71
2022/11/10 06:45:22;;;;;;;0.60;0.60;;;4.10;99.90;;;;;;5064088;28;20435;-71
2022/11/10 06:47:57;;;;;;;0.90;0.88;;;4.20;99.90;;;;;;5056323;28;20608;-71
2022/11/10 06:50:23;;;;;;;1.25;0.55;;;4.30;99.90;;;;;;5059165;28;21165;-71
2022/11/10 06:52:58;;;;;;;1.45;0.60;;;4.50;99.90;;;;;;5060928;28;21065;-71
2022/11/10 06:55:25;;;;;;;1.00;1.00;;;4.70;99.90;;;;;;5071484;28;20994;-71
2022/11/10 06:57:53;;;;;;;0.82;0.80;;;4.80;99.90;;;;;;5063544;28;20913;-71
2022/11/10 07:00:21;;;;;;;0.43;0.43;;;4.90;99.90;;;;;;5063836;28;20438;-71
2022/11/10 07:02:57;;;;;;;2.00;0.60;;;4.90;99.90;;;;;;5064014;28;20427;-71
2022/11/10 07:05:24;;;;;;;0.70;0.50;;;4.90;99.90;;;;;;5063834;28;20429;-71
2022/11/10 07:07:51;;;;;;;0.40;0.40;;;5.00;99.90;;;;;;5064678;28;20432;-71
2022/11/10 07:10:20;;;;;;;1.80;0.80;;;5.00;99.90;;;;;;5059177;28;20429;-71
2022/11/10 07:12:47;;;;;;;0.80;0.80;;;5.00;99.90;;;;;;5063875;28;20436;-70
2022/11/10 07:15:13;;;;;;;1.50;0.57;;;5.20;99.90;;;;;;5072691;28;20906;-71
2022/11/10 07:17:40;;;;;;;1.42;0.93;;;5.30;99.90;;;;;;5065860;28;20453;-71
2022/11/10 07:20:08;;;;;;;0.52;0.52;;;5.50;99.90;;;;;;5070766;28;20428;-71
2022/11/10 07:22:34;;;;;;;0.68;0.68;;;5.70;99.90;;;;;;5052423;28;20436;-71
2022/11/10 07:25:01;;;;;;;0.50;0.50;;;5.80;99.90;;;;;;5062475;28;20918;-71
2022/11/10 07:27:28;;;;;;;0.50;0.50;;;6.00;99.90;;;;;;5058649;28;20447;-71
2022/11/10 07:29:57;;;;;;;0.70;0.70;;;6.10;99.90;;;;;;5066666;28;20506;-71
2022/11/10 07:32:32;;;;;;;2.40;0.60;;;6.20;99.90;;;;;;5070784;28;20423;-71
2022/11/10 07:34:59;;;;;;;1.20;1.10;;;6.30;99.90;;;;;;5059789;28;20427;-71
2022/11/10 07:37:25;;;;;;;1.35;1.15;;;6.50;99.90;;;;;;5051429;28;20438;-71
2022/11/10 07:39:54;;;;;;;0.60;0.60;;;6.70;99.90;;;;;;5056280;28;20937;-71
2022/11/10 07:42:21;;;;;;;0.73;0.73;;;6.90;99.90;;;;;;5053611;28;20428;-71
2022/11/10 07:44:47;;;;;;;0.73;0.73;;;6.80;99.90;;;;;;5053623;28;20435;-71
2022/11/10 07:47:16;;;;;;;0.70;0.70;;;7.00;99.90;;;;;;5051436;28;20504;-71
2022/11/10 07:49:43;;;;;;;1.17;0.98;;;7.10;99.90;;;;;;5047250;28;20446;-71
2022/11/10 07:52:12;;;;;;;0.80;0.80;;;7.10;99.90;;;;;;5058698;28;20439;-72
2022/11/10 07:54:41;;;;;;;0.93;0.82;;;7.20;99.90;;;;;;5064816;28;20422;-71
2022/11/10 07:57:08;;;;;;;0.40;0.40;;;7.40;99.90;;;;;;5054490;28;20427;-71
2022/11/10 07:59:34;;;;;;;1.15;1.10;;;7.50;99.90;;;;;;5055876;28;20435;-72
2022/11/10 08:02:01;;;;;;;0.83;0.83;;;7.50;99.90;;;;;;5058043;28;20465;-71
2022/11/10 08:04:28;;;;;;;0.85;0.85;;;7.60;99.90;;;;;;5046192;28;21842;-72
2022/11/10 08:06:54;;;;;;;0.80;0.80;;;7.70;99.90;;;;;;5048607;28;20432;-71
2022/11/10 08:09:21;;;;;;;0.60;0.60;;;7.90;99.90;;;;;;5049311;28;20429;-72
2022/11/10 08:11:48;;;;;;;0.88;0.88;;;8.10;99.90;;;;;;5050616;28;20918;-72
2022/11/10 08:14:14;;;;;;;2.70;1.02;;;8.10;99.90;;;;;;5049997;28;20782;-72
2022/11/10 08:16:41;;;;;;;0.52;0.52;;;8.40;99.90;;;;;;5063421;28;20434;-72
2022/11/10 08:19:08;;;;;;;0.75;0.75;;;8.60;99.90;;;;;;5055329;28;20425;-72
2022/11/10 08:21:35;;;;;;;0.95;0.95;;;8.70;99.90;;;;;;5064691;28;20424;-72
2022/11/10 08:24:07;;;;;;;1.15;0.90;;;8.90;99.90;;;;;;5052290;28;20425;-72
2022/11/10 08:26:34;;;;;;;0.80;0.80;;;9.10;99.90;;;;;;5059532;28;20431;-72
2022/11/10 08:29:01;;;;;;;0.52;0.52;;;9.10;99.90;;;;;;5069406;28;20436;-73
2022/11/10 08:31:28;;;;;;;1.50;1.40;;;9.10;99.90;;;;;;5062764;28;20781;-72
2022/11/10 08:33:54;;;;;;;0.90;0.90;;;9.30;99.90;;;;;;5066286;28;20426;-72
2022/11/10 08:36:22;;;;;;;1.05;0.98;;;9.50;99.90;;;;;;5075380;28;20750;-73
2022/11/10 08:38:49;;;;;;;0.80;0.80;;;9.70;99.90;;;;;;5070173;28;20434;-73
2022/11/10 08:41:18;;;;;;;1.00;1.00;;;9.80;99.90;;;;;;5062584;28;20458;-72
2022/11/10 08:43:48;;;;;;;1.30;0.88;;;9.90;99.90;;;;;;5075597;28;20429;-72
2022/11/10 08:46:15;;;;;;;1.20;1.10;;;10.00;99.90;;;;;;5074110;28;20780;-72
2022/11/10 08:48:42;;;;;;;0.77;0.77;;;10.20;99.90;;;;;;5067237;28;20479;-73
2022/11/10 08:51:08;;;;;;;2.60;1.08;;;10.30;99.90;;;;;;5073993;28;20547;-72
2022/11/10 08:53:35;;;;;;;1.08;1.05;;;10.30;99.90;;;;;;5061687;28;20435;-72
2022/11/10 08:56:05;;;;;;;1.98;1.42;;;10.20;99.90;;;;;;5068396;28;20461;-73
2022/11/10 08:58:31;;;;;;;1.30;1.20;;;10.30;99.90;;;;;;5061342;28;20452;-72
2022/11/10 09:00:58;;;;;;;1.75;1.00;;;10.50;99.90;;;;;;5051090;28;20436;-72
2022/11/10 09:03:25;;;;;;;1.10;1.10;;;10.30;99.90;;;;;;5067085;28;20427;-72
2022/11/10 09:05:52;;;;;;;0.90;0.90;;;10.30;99.90;;;;;;5071570;28;20493;-72
2022/11/10 09:08:27;;;;;;;0.90;0.90;;;10.50;99.90;;;;;;5054202;28;20423;-72
2022/11/10 09:10:54;;;;;;;1.15;1.10;;;10.40;99.90;;;;;;5056838;28;20426;-72
2022/11/10 09:13:20;;;;;;;1.33;1.17;;;10.50;99.90;;;;;;5069466;28;20890;-72
2022/11/10 09:15:55;;;;;;;1.38;1.27;;;10.60;99.90;;;;;;5067979;28;20903;-72
2022/11/10 09:18:22;;;;;;;0.88;0.88;;;11.00;99.90;;;;;;5088374;28;20796;-72
2022/11/10 09:20:48;;;;;;;1.88;1.20;;;11.10;99.90;;;;;;5075399;28;20488;-72
2022/11/10 09:23:17;;;;;;;2.00;1.40;;;11.20;56.50;;;;;;5058703;28;20434;-72
2022/11/10 09:25:49;;;;;;;1.40;1.20;;;11.40;99.90;;;;;;5072857;28;20431;-72
2022/11/10 09:28:17;;;;;;;1.60;1.50;;;11.70;99.90;;;;;;5074809;28;20790;-72
2022/11/10 09:30:49;;;;;;;4.10;1.50;;;11.80;1.00;;;;;;5063169;28;20439;-72
2022/11/10 09:33:16;;;;;;;1.00;1.00;;;12.00;99.90;;;;;;5070816;28;20430;-72
2022/11/10 09:35:43;;;;;;;1.20;1.10;;;12.30;99.90;;;;;;5079603;28;20436;-70
2022/11/10 09:38:10;;;;;;;1.77;1.10;;;12.80;1.00;;;;;;5070898;28;20502;-70
2022/11/10 09:40:43;;;;;;;1.20;0.90;;;12.70;99.90;;;;;;5077246;28;20513;-71
2022/11/10 09:43:34;;;;;;;0.83;0.80;;;13.20;1.00;;;;;;5063325;28;20441;-71
2022/11/10 09:46:12;;;;;;;1.05;0.95;;;13.80;99.90;;;;;;5079580;28;20461;-72
2022/11/10 09:48:45;;;;;;;1.80;0.93;;;14.20;99.90;;;;;;5066287;28;20437;-71
2022/11/10 09:51:25;;;;;;;1.05;0.95;;;14.60;99.90;;;;;;5080043;28;20754;-72
2022/11/10 09:53:54;;;;;;;4.13;1.00;;;14.90;1.00;;;;;;5073439;28;20429;-71
2022/11/10 09:56:34;;;;;;;2.88;0.95;;;15.00;1.00;;;;;;5064163;28;20431;-71
2022/11/10 09:59:15;;;;;;;5.15;1.17;;;14.70;1.00;;;;;;5058463;28;20481;-71
2022/11/10 10:01:48;;;;;;;1.05;0.95;;;14.70;1.00;;;;;;5067403;28;20436;-71
2022/11/10 10:04:48;;;;;;;1.00;0.85;;;14.10;1.00;;;;;;5046603;28;20464;-71
2022/11/10 10:07:59;;;;;;;1.30;1.10;;;14.10;1.00;;;;;;5053337;28;20423;-71
2022/11/10 10:10:48;;;;;;;0.77;0.70;;;13.90;1.00;;;;;;5028835;28;20455;-71
2022/11/10 10:13:30;;;;;;;1.10;1.00;;;13.60;1.00;;;;;;5065927;28;20431;-68
2022/11/10 10:16:21;;;;;;;0.70;0.70;;;13.40;1.00;;;;;;5055447;28;20427;-69
2022/11/10 10:19:10;;;;;;;0.65;0.65;;;13.40;1.00;;;;;;5065626;28;20941;-70
2022/11/10 10:22:05;;;;;;;1.13;0.75;;;13.60;1.00;;;;;;5065023;28;20930;-70
2022/11/10 10:24:33;;;;;;;0.60;0.60;;;13.90;1.00;;;;;;5060941;28;20431;-69
2022/11/10 10:27:03;;;;;;;1.17;0.60;;;14.30;1.00;;;;;;5071066;28;20519;-69
2022/11/10 10:29:38;;;;;;;2.08;1.00;;;14.80;1.00;;;;;;5062530;28;20428;-66
2022/11/10 10:32:11;;;;;;;1.60;0.60;;;14.90;1.00;;;;;;5060014;28;20607;-69
2022/11/10 10:34:42;;;;;;;0.52;0.52;;;14.90;99.90;;;;;;5066330;28;20427;-69
2022/11/10 10:37:41;;;;;;;3.30;0.98;;;14.70;99.90;;;;;;5055334;28;20994;-72
2022/11/10 10:40:16;;;;;;;0.60;0.60;;;14.30;99.90;;;;;;5059083;28;20431;-73
2022/11/10 10:42:44;;;;;;;1.55;0.90;;;13.70;99.90;;;;;;5065930;28;20484;-72
2022/11/10 10:45:23;;;;;;;0.50;0.50;;;14.10;99.90;;;;;;5066796;28;20921;-75
2022/11/10 10:47:55;;;;;;;1.75;0.50;;;14.50;99.90;;;;;;5073161;28;20438;-74
2022/11/10 10:50:31;;;;;;;0.80;0.60;;;14.70;99.90;;;;;;5070035;28;20442;-73
2022/11/10 10:53:16;;;;;;;0.40;0.40;;;14.90;99.90;;;;;;5055053;28;20429;-73
2022/11/10 10:55:51;;;;;;;1.00;0.60;;;15.40;99.90;;;;;;5061952;28;20446;-73
2022/11/10 10:58:28;;;;;;;0.70;0.68;;;15.50;99.90;;;;;;5062881;28;20438;-74
2022/11/10 11:01:25;;;;;;;0.60;0.60;;;15.70;99.90;;;;;;5058441;28;20439;-73
2022/11/10 11:03:55;;;;;;;1.05;0.63;;;15.80;99.90;;;;;;5065006;28;20432;-73
2022/11/10 11:06:27;;;;;;;0.43;0.43;;;16.20;99.90;;;;;;5071274;28;20495;-73
2022/11/10 11:09:06;;;;;;;0.80;0.80;;;16.70;99.90;;;;;;5071262;28;20458;-73
2022/11/10 11:11:38;;;;;;;0.85;0.65;;;17.00;99.90;;;;;;5071961;28;20423;-73
2022/11/10 11:14:24;;;;;;;0.50;0.47;;;17.40;99.90;;;;;;5070406;28;20420;-73
2022/11/10 11:16:56;;;;;;;0.50;0.50;;;17.40;99.90;;;;;;5063972;28;20433;-73
2022/11/10 11:19:28;;;;;;;0.47;0.47;;;17.90;99.90;;;;;;5068675;28;20427;-73
2022/11/10 11:22:27;;;;;;;0.40;0.40;;;17.70;99.90;;;;;;5066786;28;20423;-73
2022/11/10 11:25:19;;;;;;;0.60;0.60;;;17.40;99.90;;;;;;5067075;28;20462;-73
2022/11/10 11:28:30;;;;;;;0.55;0.55;;;17.80;99.90;;;;;;5062452;28;20439;-73
2022/11/10 11:31:19;;;;;;;0.85;0.50;;;17.80;99.90;;;;;;5058121;28;20434;-72
2022/11/10 11:34:12;;;;;;;1.00;0.75;;;17.50;99.90;;;;;;5059425;28;20734;-72
2022/11/10 11:37:03;;;;;;;0.70;0.60;;;17.70;99.90;;;;;;5072532;28;20479;-73
2022/11/10 11:40:03;;;;;;;1.02;0.85;;;17.30;99.90;;;;;;5070561;28;20953;-73
2022/11/10 11:42:51;;;;;;;1.13;0.73;;;16.90;99.90;;;;;;5062780;28;20511;-73
2022/11/10 11:45:33;;;;;;;0.70;0.70;;;17.10;99.90;;;;;;5060086;28;20429;-73
2022/11/10 11:48:08;;;;;;;2.70;0.70;;;17.60;99.90;;;;;;5067212;28;20429;-73
2022/11/10 11:50:54;;;;;;;1.00;0.70;;;18.30;99.90;;;;;;5068014;28;20469;-73
2022/11/10 11:53:51;;;;;;;0.73;0.73;;;18.80;99.90;;;;;;5058937;28;20965;-73
2022/11/10 11:56:25;;;;;;;1.17;0.80;;;19.20;99.90;;;;;;5057494;28;20458;-73
2022/11/10 11:59:13;;;;;;;1.88;0.63;;;19.20;99.90;;;;;;5069418;28;20492;-73
2022/11/10 12:01:53;;;;;;;1.15;0.60;;;19.30;99.90;;;;;;5073981;28;20491;-74
2022/11/10 12:04:29;;;;;;;0.77;0.60;;;19.50;99.90;;;;;;5062525;28;20485;-73
2022/11/10 12:07:14;;;;;;;0.88;0.70;;;19.30;99.90;;;;;;5056464;28;20423;-73
2022/11/10 12:09:51;;;;;;;0.88;0.85;;;19.10;99.90;;;;;;5071758;28;20423;-73
2022/11/10 12:12:56;;;;;;;0.60;0.50;;;18.50;99.90;;;;;;5069652;28;20439;-73
2022/11/10 12:15:43;;;;;;;1.00;0.70;;;18.30;99.90;;;;;;5066400;28;20438;-73
2022/11/10 12:18:35;;;;;;;0.90;0.50;;;18.00;99.90;;;;;;5070873;28;20461;-73
2022/11/10 12:21:25;;;;;;;2.38;0.80;;;17.90;99.90;;;;;;5068133;28;20920;-74
2022/11/10 12:24:18;;;;;;;0.80;0.80;;;17.60;99.90;;;;;;5073500;28;20431;-73
2022/11/10 12:26:52;;;;;;;0.40;0.40;;;17.90;99.90;;;;;;5059351;28;20429;-73
2022/11/10 12:29:42;;;;;;;0.67;0.67;;;17.50;99.90;;;;;;5079472;28;20867;-72
2022/11/10 12:32:18;;;;;;;0.88;0.73;;;17.20;99.90;;;;;;5071722;28;20428;-72
2022/11/10 12:35:10;;;;;;;0.50;0.50;;;17.30;99.90;;;;;;5060818;28;20471;-72
2022/11/10 12:37:41;;;;;;;2.40;0.90;;;16.60;99.90;;;;;;5078894;28;20422;-72
2022/11/10 12:40:21;;;;;;;1.20;0.60;;;16.80;99.90;;;;;;5077320;28;20434;-72
2022/11/10 12:43:03;;;;;;;0.40;0.40;;;16.60;99.90;;;;;;5076737;28;20431;-72
2022/11/10 12:45:41;;;;;;;0.65;0.63;;;16.50;99.90;;;;;;5055822;28;20498;-72
2022/11/10 12:48:11;;;;;;;0.85;0.82;;;16.90;99.90;;;;;;5079321;28;21102;-72
2022/11/10 12:50:44;;;;;;;1.70;0.40;;;17.30;99.90;;;;;;5080488;28;20434;-72
2022/11/10 12:53:23;;;;;;;0.95;0.95;;;17.50;99.90;;;;;;5073401;28;20445;-72
2022/11/10 12:55:55;;;;;;;0.40;0.40;;;17.80;99.90;;;;;;5074259;28;20505;-72
2022/11/10 12:58:23;;;;;;;0.52;0.52;;;17.70;99.90;;;;;;5068266;28;20890;-72
2022/11/10 13:00:56;;;;;;;1.30;0.40;;;17.70;99.90;;;;;;5074967;28;20512;-71
2022/11/10 13:03:33;;;;;;;0.52;0.52;;;17.70;99.90;;;;;;5079471;28;20422;-72
2022/11/10 13:06:05;;;;;;;0.82;0.68;;;17.60;99.90;;;;;;5069922;28;20438;-72
2022/11/10 13:08:41;;;;;;;0.95;0.82;;;17.50;99.90;;;;;;5068557;28;20433;-72
2022/11/10 13:11:10;;;;;;;1.38;0.70;;;17.50;99.90;;;;;;5076083;28;20471;-72
2022/11/10 13:13:56;;;;;;;1.93;0.67;;;17.50;99.90;;;;;;5083324;28;20864;-72
2022/11/10 13:16:37;;;;;;;0.40;0.40;;;17.40;99.90;;;;;;5065218;28;20431;-72
2022/11/10 13:19:07;;;;;;;2.35;0.70;;;16.80;99.90;;;;;;5076293;28;20426;-72
2022/11/10 13:21:49;;;;;;;1.90;0.80;;;16.10;99.90;;;;;;5080828;28;20426;-72
2022/11/10 13:24:33;;;;;;;1.30;0.50;;;15.60;99.90;;;;;;5075858;28;20434;-72
2022/11/10 13:27:02;;;;;;;0.50;0.50;;;15.00;99.90;;;;;;5063799;28;20491;-72
2022/11/10 13:29:33;;;;;;;0.60;0.60;;;15.00;99.90;;;;;;5067821;28;20861;-73